PAL2142 RPVI-RPLL
Flight info
| Callsign | PAL2142 |
|---|---|
| Flight time | 0h 50m |
| Altitude | 30000 |
| Route | LAMBO1S LAMBO B472 IBAGO IBAGO3P |
| Aircraft | A346/H-SDE2E3FGHIJ3J4J5M1RWXY/LB1D1 |
Departure
| Time | 2026-04-15 06:23 |
|---|---|
| Airport | Iloilo International Airport (RPVI) |
Arrival
| Time | 2026-04-15 07:13 |
|---|---|
| Airport | Ninoy Aquino International Airport (RPLL) |
| Time | Latitude | Longitude | Altitude | Speed | Heading |
|---|---|---|---|---|---|
| 2026-04-15 06:08 | 10.83119 | 122.49636 | 149 ft | 0 kts | 110° |
| 2026-04-15 06:11 | 10.83122 | 122.49628 | 149 ft | 2 kts | 110° |
| 2026-04-15 06:11 | 10.83127 | 122.49613 | 149 ft | 2 kts | 111° |
| 2026-04-15 06:12 | 10.83132 | 122.49601 | 149 ft | 0 kts | 111° |
| 2026-04-15 06:12 | 10.83136 | 122.49589 | 149 ft | 2 kts | 94° |
| 2026-04-15 06:12 | 10.83133 | 122.49573 | 149 ft | 2 kts | 63° |
| 2026-04-15 06:12 | 10.83124 | 122.49560 | 148 ft | 2 kts | 37° |
| 2026-04-15 06:13 | 10.83115 | 122.49555 | 148 ft | 0 kts | 20° |
| 2026-04-15 06:13 | 10.83111 | 122.49554 | 148 ft | 0 kts | 20° |
| 2026-04-15 06:16 | 10.83116 | 122.49556 | 148 ft | 2 kts | 20° |
| 2026-04-15 06:16 | 10.83139 | 122.49565 | 149 ft | 4 kts | 21° |
| 2026-04-15 06:16 | 10.83179 | 122.49582 | 149 ft | 7 kts | 23° |
| 2026-04-15 06:17 | 10.83240 | 122.49605 | 150 ft | 10 kts | 20° |
| 2026-04-15 06:17 | 10.83317 | 122.49634 | 151 ft | 12 kts | 20° |
| 2026-04-15 06:17 | 10.83395 | 122.49662 | 151 ft | 6 kts | 20° |
| 2026-04-15 06:17 | 10.83441 | 122.49673 | 151 ft | 6 kts | 3° |
| 2026-04-15 06:18 | 10.83479 | 122.49662 | 151 ft | 3 kts | 324° |
| 2026-04-15 06:18 | 10.83500 | 122.49633 | 151 ft | 7 kts | 295° |
| 2026-04-15 06:18 | 10.83524 | 122.49573 | 151 ft | 10 kts | 290° |
| 2026-04-15 06:18 | 10.83549 | 122.49500 | 151 ft | 11 kts | 295° |
| 2026-04-15 06:19 | 10.83616 | 122.49454 | 152 ft | 8 kts | 360° |
| 2026-04-15 06:19 | 10.83680 | 122.49474 | 152 ft | 10 kts | 20° |
| 2026-04-15 06:19 | 10.83760 | 122.49503 | 153 ft | 13 kts | 20° |
| 2026-04-15 06:19 | 10.83853 | 122.49538 | 154 ft | 15 kts | 20° |
| 2026-04-15 06:20 | 10.83960 | 122.49578 | 155 ft | 18 kts | 20° |
| 2026-04-15 06:20 | 10.84098 | 122.49629 | 157 ft | 21 kts | 20° |
| 2026-04-15 06:20 | 10.84228 | 122.49677 | 160 ft | 10 kts | 20° |
| 2026-04-15 06:20 | 10.84279 | 122.49713 | 160 ft | 8 kts | 47° |
| 2026-04-15 06:21 | 10.84318 | 122.49734 | 161 ft | 2 kts | 351° |
| 2026-04-15 06:21 | 10.84326 | 122.49724 | 161 ft | 1 kts | 272° |
| 2026-04-15 06:21 | 10.84318 | 122.49715 | 161 ft | 1 kts | 206° |
| 2026-04-15 06:21 | 10.84309 | 122.49711 | 161 ft | 0 kts | 204° |
| 2026-04-15 06:22 | 10.84305 | 122.49709 | 160 ft | 5 kts | 204° |
| 2026-04-15 06:22 | 10.84083 | 122.49624 | 157 ft | 80 kts | 200° |
| 2026-04-15 06:22 | 10.83237 | 122.49312 | 149 ft | 170 kts | 199° |
| 2026-04-15 06:23 | 10.81921 | 122.48819 | 570 ft | 208 kts | 202° |
| 2026-04-15 06:23 | 10.80589 | 122.48301 | 1585 ft | 209 kts | 200° |
| 2026-04-15 06:23 | 10.79284 | 122.47795 | 2705 ft | 196 kts | 206° |
| 2026-04-15 06:23 | 10.78312 | 122.46818 | 3263 ft | 201 kts | 251° |
| 2026-04-15 06:24 | 10.78353 | 122.45373 | 3764 ft | 206 kts | 298° |
| 2026-04-15 06:24 | 10.79276 | 122.44260 | 4258 ft | 216 kts | 325° |
| 2026-04-15 06:24 | 10.80722 | 122.43651 | 4762 ft | 228 kts | 351° |
| 2026-04-15 06:24 | 10.82330 | 122.43347 | 5432 ft | 235 kts | 352° |
| 2026-04-15 06:25 | 10.83957 | 122.43017 | 6159 ft | 240 kts | 351° |
| 2026-04-15 06:25 | 10.85652 | 122.42645 | 6790 ft | 253 kts | 350° |
| 2026-04-15 06:25 | 10.87389 | 122.42243 | 7642 ft | 255 kts | 349° |
| 2026-04-15 06:25 | 10.89123 | 122.41827 | 8551 ft | 254 kts | 349° |
| 2026-04-15 06:26 | 10.90837 | 122.41409 | 9322 ft | 256 kts | 349° |
| 2026-04-15 06:26 | 10.92601 | 122.40977 | 10070 ft | 259 kts | 349° |
| 2026-04-15 06:26 | 10.94377 | 122.40541 | 10826 ft | 261 kts | 349° |
| 2026-04-15 06:26 | 10.96168 | 122.40098 | 11568 ft | 264 kts | 349° |
| 2026-04-15 06:27 | 10.97986 | 122.39648 | 12317 ft | 266 kts | 349° |
| 2026-04-15 06:27 | 10.99800 | 122.39198 | 13054 ft | 267 kts | 349° |
| 2026-04-15 06:27 | 11.01649 | 122.38741 | 13784 ft | 270 kts | 349° |
| 2026-04-15 06:27 | 11.03501 | 122.38282 | 14464 ft | 273 kts | 349° |
| 2026-04-15 06:28 | 11.05347 | 122.37824 | 15120 ft | 276 kts | 349° |
| 2026-04-15 06:28 | 11.07226 | 122.37358 | 15774 ft | 279 kts | 349° |
| 2026-04-15 06:28 | 11.09135 | 122.36885 | 16412 ft | 282 kts | 349° |
| 2026-04-15 06:28 | 11.11072 | 122.36404 | 17043 ft | 285 kts | 350° |
| 2026-04-15 06:29 | 11.13008 | 122.35927 | 17658 ft | 289 kts | 350° |
| 2026-04-15 06:29 | 11.14979 | 122.35426 | 18253 ft | 293 kts | 347° |
| 2026-04-15 06:29 | 11.16997 | 122.34777 | 18586 ft | 310 kts | 343° |
| 2026-04-15 06:29 | 11.19048 | 122.33943 | 18863 ft | 326 kts | 340° |
| 2026-04-15 06:30 | 11.21246 | 122.32997 | 19141 ft | 343 kts | 340° |
| 2026-04-15 06:30 | 11.23531 | 122.32007 | 19414 ft | 359 kts | 340° |
| 2026-04-15 06:30 | 11.25948 | 122.30959 | 19686 ft | 374 kts | 339° |
| 2026-04-15 06:30 | 11.28414 | 122.29890 | 19945 ft | 390 kts | 339° |
| 2026-04-15 06:31 | 11.31037 | 122.28753 | 20202 ft | 405 kts | 339° |
| 2026-04-15 06:31 | 11.33717 | 122.27593 | 20441 ft | 419 kts | 339° |
| 2026-04-15 06:31 | 11.36456 | 122.26405 | 20739 ft | 430 kts | 339° |
| 2026-04-15 06:31 | 11.39290 | 122.25176 | 21261 ft | 436 kts | 339° |
| 2026-04-15 06:32 | 11.42128 | 122.23945 | 21859 ft | 438 kts | 339° |
| 2026-04-15 06:32 | 11.44960 | 122.22716 | 22435 ft | 441 kts | 338° |
| 2026-04-15 06:32 | 11.47827 | 122.21472 | 22975 ft | 445 kts | 338° |
| 2026-04-15 06:32 | 11.50741 | 122.20207 | 23494 ft | 449 kts | 338° |
| 2026-04-15 06:33 | 11.53693 | 122.18927 | 24004 ft | 454 kts | 338° |
| 2026-04-15 06:33 | 11.56654 | 122.17642 | 24513 ft | 458 kts | 338° |
| 2026-04-15 06:33 | 11.59633 | 122.16350 | 25002 ft | 462 kts | 338° |
| 2026-04-15 06:33 | 11.62587 | 122.15067 | 25599 ft | 463 kts | 338° |
| 2026-04-15 06:34 | 11.65560 | 122.13774 | 26340 ft | 460 kts | 338° |
| 2026-04-15 06:34 | 11.68558 | 122.12471 | 27068 ft | 458 kts | 338° |
| 2026-04-15 06:34 | 11.71545 | 122.11173 | 27773 ft | 456 kts | 338° |
| 2026-04-15 06:34 | 11.74529 | 122.09875 | 28440 ft | 455 kts | 337° |
| 2026-04-15 06:35 | 11.77561 | 122.08555 | 29012 ft | 457 kts | 337° |
| 2026-04-15 06:35 | 11.80583 | 122.07240 | 29548 ft | 459 kts | 337° |
| 2026-04-15 06:35 | 11.83563 | 122.05944 | 29828 ft | 461 kts | 337° |
| 2026-04-15 06:36 | 11.89644 | 122.03296 | 29871 ft | 463 kts | 337° |
| 2026-04-15 06:36 | 11.95703 | 122.00657 | 29877 ft | 463 kts | 337° |
| 2026-04-15 06:37 | 12.01723 | 121.98033 | 29876 ft | 463 kts | 337° |
| 2026-04-15 06:37 | 12.07784 | 121.95390 | 29871 ft | 463 kts | 337° |
| 2026-04-15 06:38 | 12.13795 | 121.92773 | 29871 ft | 463 kts | 337° |
| 2026-04-15 06:38 | 12.19887 | 121.90124 | 29862 ft | 463 kts | 337° |
| 2026-04-15 06:39 | 12.25894 | 121.87499 | 29857 ft | 463 kts | 337° |
| 2026-04-15 06:39 | 12.31953 | 121.84847 | 29862 ft | 463 kts | 337° |
| 2026-04-15 06:40 | 12.38056 | 121.82179 | 29856 ft | 463 kts | 337° |
| 2026-04-15 06:40 | 12.44113 | 121.79546 | 29858 ft | 463 kts | 337° |
| 2026-04-15 06:41 | 12.50197 | 121.76890 | 29863 ft | 463 kts | 337° |
| 2026-04-15 06:41 | 12.56341 | 121.74200 | 29867 ft | 463 kts | 337° |
| 2026-04-15 06:42 | 12.62511 | 121.71497 | 29868 ft | 463 kts | 337° |
| 2026-04-15 06:42 | 12.68592 | 121.68831 | 29870 ft | 463 kts | 337° |
| 2026-04-15 06:43 | 12.74707 | 121.66147 | 29871 ft | 463 kts | 337° |
| 2026-04-15 06:43 | 12.80761 | 121.63490 | 29872 ft | 463 kts | 337° |
| 2026-04-15 06:44 | 12.86857 | 121.60811 | 29873 ft | 463 kts | 337° |
| 2026-04-15 06:44 | 12.92972 | 121.58122 | 29874 ft | 463 kts | 337° |
| 2026-04-15 06:45 | 12.99073 | 121.55439 | 29876 ft | 463 kts | 337° |
| 2026-04-15 06:45 | 13.05110 | 121.52783 | 29877 ft | 463 kts | 337° |
| 2026-04-15 06:46 | 13.11149 | 121.50124 | 29625 ft | 462 kts | 337° |
| 2026-04-15 06:46 | 13.14166 | 121.48801 | 29373 ft | 460 kts | 337° |
| 2026-04-15 06:46 | 13.17163 | 121.47485 | 29122 ft | 457 kts | 337° |
| 2026-04-15 06:46 | 13.20166 | 121.46165 | 28870 ft | 454 kts | 337° |
| 2026-04-15 06:47 | 13.23187 | 121.44834 | 28616 ft | 453 kts | 337° |
| 2026-04-15 06:47 | 13.26164 | 121.43521 | 28370 ft | 453 kts | 337° |
| 2026-04-15 06:47 | 13.29146 | 121.42205 | 28127 ft | 454 kts | 337° |
| 2026-04-15 06:47 | 13.32123 | 121.40890 | 27830 ft | 454 kts | 337° |
| 2026-04-15 06:48 | 13.35044 | 121.39598 | 27461 ft | 454 kts | 337° |
| 2026-04-15 06:48 | 13.37991 | 121.38293 | 26978 ft | 455 kts | 337° |
| 2026-04-15 06:48 | 13.40942 | 121.36985 | 26436 ft | 455 kts | 337° |
| 2026-04-15 06:48 | 13.43974 | 121.35641 | 25852 ft | 455 kts | 338° |
| 2026-04-15 06:49 | 13.46982 | 121.34305 | 25262 ft | 455 kts | 337° |
| 2026-04-15 06:49 | 13.49989 | 121.32961 | 24678 ft | 454 kts | 338° |
| 2026-04-15 06:49 | 13.53079 | 121.31814 | 24099 ft | 452 kts | 345° |
| 2026-04-15 06:50 | 13.59329 | 121.30712 | 23171 ft | 439 kts | 357° |
| 2026-04-15 06:50 | 13.62391 | 121.30524 | 22780 ft | 431 kts | 359° |
| 2026-04-15 06:50 | 13.65426 | 121.30369 | 22378 ft | 425 kts | 359° |
| 2026-04-15 06:50 | 13.68383 | 121.30221 | 21962 ft | 418 kts | 359° |
| 2026-04-15 06:51 | 13.71276 | 121.30074 | 21555 ft | 413 kts | 359° |
| 2026-04-15 06:51 | 13.74167 | 121.29923 | 21144 ft | 407 kts | 359° |
| 2026-04-15 06:51 | 13.76987 | 121.29772 | 20752 ft | 402 kts | 359° |
| 2026-04-15 06:51 | 13.79779 | 121.29623 | 20339 ft | 396 kts | 359° |
| 2026-04-15 06:52 | 13.82556 | 121.29475 | 19935 ft | 391 kts | 359° |
| 2026-04-15 06:52 | 13.85332 | 121.29324 | 19524 ft | 387 kts | 359° |
| 2026-04-15 06:52 | 13.88020 | 121.29179 | 19141 ft | 382 kts | 359° |
| 2026-04-15 06:52 | 13.90711 | 121.29031 | 18743 ft | 377 kts | 359° |
| 2026-04-15 06:53 | 13.93370 | 121.28881 | 18353 ft | 373 kts | 358° |
| 2026-04-15 06:53 | 13.95974 | 121.28735 | 17963 ft | 368 kts | 358° |
| 2026-04-15 06:53 | 13.98515 | 121.28594 | 17589 ft | 364 kts | 358° |
| 2026-04-15 06:53 | 14.01085 | 121.28455 | 17213 ft | 360 kts | 359° |
| 2026-04-15 06:54 | 14.03625 | 121.28432 | 16822 ft | 355 kts | 3° |
| 2026-04-15 06:54 | 14.06097 | 121.28580 | 16443 ft | 351 kts | 6° |
| 2026-04-15 06:54 | 14.08560 | 121.28901 | 16055 ft | 346 kts | 9° |
| 2026-04-15 06:54 | 14.10940 | 121.29295 | 15676 ft | 342 kts | 10° |
| 2026-04-15 06:55 | 14.13332 | 121.29700 | 15295 ft | 339 kts | 10° |
| 2026-04-15 06:55 | 14.15693 | 121.30100 | 14889 ft | 337 kts | 10° |
| 2026-04-15 06:55 | 14.18061 | 121.30502 | 14393 ft | 337 kts | 10° |
| 2026-04-15 06:55 | 14.20433 | 121.30904 | 13903 ft | 336 kts | 10° |
| 2026-04-15 06:56 | 14.22735 | 121.31293 | 13690 ft | 327 kts | 10° |
| 2026-04-15 06:56 | 14.24972 | 121.31672 | 13515 ft | 318 kts | 10° |
| 2026-04-15 06:56 | 14.27162 | 121.32043 | 13388 ft | 309 kts | 10° |
| 2026-04-15 06:56 | 14.29290 | 121.32403 | 13208 ft | 299 kts | 10° |
| 2026-04-15 06:57 | 14.31343 | 121.32751 | 13052 ft | 290 kts | 10° |
| 2026-04-15 06:57 | 14.33315 | 121.33085 | 12877 ft | 282 kts | 10° |
| 2026-04-15 06:57 | 14.35242 | 121.33411 | 12738 ft | 273 kts | 10° |
| 2026-04-15 06:57 | 14.37126 | 121.33730 | 12615 ft | 265 kts | 10° |
| 2026-04-15 06:58 | 14.38971 | 121.33848 | 12459 ft | 258 kts | 354° |
| 2026-04-15 06:58 | 14.40685 | 121.33354 | 12288 ft | 253 kts | 335° |
| 2026-04-15 06:58 | 14.42280 | 121.32465 | 11970 ft | 252 kts | 332° |
| 2026-04-15 06:58 | 14.43829 | 121.31537 | 11670 ft | 252 kts | 331° |
| 2026-04-15 06:59 | 14.45397 | 121.30595 | 11350 ft | 252 kts | 332° |
| 2026-04-15 06:59 | 14.46915 | 121.29707 | 11059 ft | 250 kts | 337° |
| 2026-04-15 06:59 | 14.48603 | 121.29353 | 10728 ft | 244 kts | 8° |
| 2026-04-15 06:59 | 14.50196 | 121.29942 | 10457 ft | 239 kts | 37° |
| 2026-04-15 07:00 | 14.51295 | 121.31210 | 10145 ft | 238 kts | 59° |
| 2026-04-15 07:00 | 14.52134 | 121.32727 | 9800 ft | 240 kts | 60° |
| 2026-04-15 07:00 | 14.52969 | 121.34251 | 9459 ft | 240 kts | 60° |
| 2026-04-15 07:00 | 14.53801 | 121.35759 | 9171 ft | 239 kts | 60° |
| 2026-04-15 07:01 | 14.54651 | 121.37289 | 8885 ft | 238 kts | 59° |
| 2026-04-15 07:01 | 14.55471 | 121.38761 | 8612 ft | 237 kts | 59° |
| 2026-04-15 07:01 | 14.56295 | 121.40237 | 8344 ft | 236 kts | 59° |
| 2026-04-15 07:01 | 14.57115 | 121.41702 | 8073 ft | 235 kts | 58° |
| 2026-04-15 07:02 | 14.58211 | 121.42959 | 7776 ft | 234 kts | 30° |
| 2026-04-15 07:02 | 14.59746 | 121.43423 | 7519 ft | 233 kts | 0° |
| 2026-04-15 07:02 | 14.61319 | 121.43039 | 7216 ft | 234 kts | 333° |
| 2026-04-15 07:02 | 14.62754 | 121.42200 | 6905 ft | 235 kts | 331° |
| 2026-04-15 07:03 | 14.64212 | 121.41323 | 6591 ft | 236 kts | 332° |
| 2026-04-15 07:03 | 14.65644 | 121.40489 | 6322 ft | 234 kts | 338° |
| 2026-04-15 07:03 | 14.67232 | 121.40192 | 6078 ft | 228 kts | 11° |
| 2026-04-15 07:03 | 14.68673 | 121.40831 | 5833 ft | 222 kts | 44° |
| 2026-04-15 07:04 | 14.69695 | 121.42044 | 5538 ft | 223 kts | 54° |
| 2026-04-15 07:04 | 14.70590 | 121.43385 | 5215 ft | 225 kts | 57° |
| 2026-04-15 07:04 | 14.71623 | 121.44612 | 4915 ft | 226 kts | 33° |
| 2026-04-15 07:04 | 14.73120 | 121.45097 | 4654 ft | 226 kts | 358° |
| 2026-04-15 07:05 | 14.74566 | 121.44504 | 4388 ft | 228 kts | 315° |
| 2026-04-15 07:05 | 14.75468 | 121.43161 | 5767 ft | 231 kts | 297° |
| 2026-04-15 07:05 | 14.75878 | 121.41502 | 5604 ft | 249 kts | 262° |
| 2026-04-15 07:05 | 14.75167 | 121.39880 | 5980 ft | 251 kts | 232° |
| 2026-04-15 07:06 | 14.74044 | 121.38523 | 6150 ft | 244 kts | 227° |
| 2026-04-15 07:06 | 14.72882 | 121.37234 | 6144 ft | 242 kts | 227° |
| 2026-04-15 07:06 | 14.71740 | 121.35937 | 6152 ft | 242 kts | 228° |
| 2026-04-15 07:06 | 14.70622 | 121.34620 | 6162 ft | 243 kts | 229° |
| 2026-04-15 07:07 | 14.69504 | 121.33272 | 6157 ft | 243 kts | 230° |
| 2026-04-15 07:07 | 14.68402 | 121.31926 | 6145 ft | 243 kts | 230° |
| 2026-04-15 07:07 | 14.67275 | 121.30623 | 6136 ft | 243 kts | 226° |
| 2026-04-15 07:07 | 14.66164 | 121.29310 | 6126 ft | 243 kts | 233° |
| 2026-04-15 07:08 | 14.65209 | 121.27840 | 6129 ft | 240 kts | 238° |
| 2026-04-15 07:08 | 14.64386 | 121.26364 | 6136 ft | 234 kts | 240° |
| 2026-04-15 07:08 | 14.63600 | 121.24902 | 6128 ft | 233 kts | 240° |
| 2026-04-15 07:08 | 14.62800 | 121.23425 | 6130 ft | 233 kts | 240° |
| 2026-04-15 07:09 | 14.61995 | 121.21958 | 6131 ft | 233 kts | 240° |
| 2026-04-15 07:09 | 14.61193 | 121.20512 | 6131 ft | 232 kts | 240° |
| 2026-04-15 07:09 | 14.60375 | 121.19044 | 6122 ft | 232 kts | 239° |
| 2026-04-15 07:09 | 14.59569 | 121.17598 | 6113 ft | 229 kts | 240° |
| 2026-04-15 07:10 | 14.58780 | 121.16195 | 3718 ft | 219 kts | 239° |
| 2026-04-15 07:10 | 14.58028 | 121.14837 | 3452 ft | 220 kts | 239° |
| 2026-04-15 07:10 | 14.57267 | 121.13464 | 3191 ft | 214 kts | 238° |
| 2026-04-15 07:10 | 14.56537 | 121.12151 | 2796 ft | 207 kts | 238° |
| 2026-04-15 07:11 | 14.55832 | 121.10887 | 2458 ft | 198 kts | 238° |
| 2026-04-15 07:11 | 14.55160 | 121.09682 | 2180 ft | 187 kts | 238° |
| 2026-04-15 07:11 | 14.54549 | 121.08581 | 2119 ft | 165 kts | 237° |
| 2026-04-15 07:11 | 14.55653 | 121.08586 | 2229 ft | 162 kts | 15° |
| 2026-04-15 07:12 | 14.52441 | 121.04804 | 551 ft | 189 kts | 238° |
| 2026-04-15 07:13 | 14.51800 | 121.03642 | 258 ft | 179 kts | 237° |
| 2026-04-15 07:13 | 14.51208 | 121.02568 | 109 ft | 163 kts | 236° |
| 2026-04-15 07:13 | 14.50674 | 121.01621 | 91 ft | 137 kts | 238° |
| 2026-04-15 07:13 | 14.50363 | 121.01067 | 91 ft | 47 kts | 241° |
| 2026-04-15 07:14 | 14.50216 | 121.00800 | 91 ft | 43 kts | 241° |
| 2026-04-15 07:14 | 14.50109 | 121.00594 | 90 ft | 19 kts | 239° |
| 2026-04-15 07:14 | 14.50048 | 121.00487 | 90 ft | 14 kts | 243° |
| 2026-04-15 07:14 | 14.50047 | 121.00408 | 90 ft | 10 kts | 305° |
| 2026-04-15 07:15 | 14.50108 | 121.00359 | 90 ft | 10 kts | 333° |
| 2026-04-15 07:15 | 14.50159 | 121.00333 | 90 ft | 3 kts | 341° |
| 2026-04-15 07:15 | 14.50194 | 121.00337 | 90 ft | 7 kts | 25° |
| 2026-04-15 07:15 | 14.50234 | 121.00387 | 90 ft | 11 kts | 60° |
| 2026-04-15 07:16 | 14.50277 | 121.00466 | 90 ft | 14 kts | 60° |
| 2026-04-15 07:16 | 14.50314 | 121.00531 | 91 ft | 5 kts | 60° |
| 2026-04-15 07:16 | 14.50333 | 121.00552 | 91 ft | 4 kts | 26° |
| 2026-04-15 07:16 | 14.50364 | 121.00564 | 90 ft | 4 kts | 18° |
| 2026-04-15 07:17 | 14.50410 | 121.00577 | 91 ft | 7 kts | 15° |
| 2026-04-15 07:17 | 14.50454 | 121.00590 | 90 ft | 2 kts | 14° |
| 2026-04-15 07:17 | 14.50467 | 121.00593 | 90 ft | 1 kts | 15° |
| 2026-04-15 07:17 | 14.50471 | 121.00594 | 90 ft | 0 kts | 15° |